createdAt,value
2022-10-19T00:01:20.924Z,99536.75
2022-10-19T00:03:55.857Z,99540.69
2022-10-19T00:06:33.337Z,99541.29
2022-10-19T00:09:19.742Z,99542.77
2022-10-19T00:11:51.586Z,99548.39
2022-10-19T00:14:24.023Z,99548.78
2022-10-19T00:16:53.171Z,99554.14
2022-10-19T00:19:24.866Z,99560.02
2022-10-19T00:21:53.596Z,99555.79
2022-10-19T00:24:22.929Z,99552.74
2022-10-19T00:26:50.697Z,99556.30
2022-10-19T00:29:19.334Z,99556.13
2022-10-19T00:31:53.609Z,99558.98
2022-10-19T00:34:21.451Z,99558.13
2022-10-19T00:36:50.611Z,99558.47
2022-10-19T00:39:19.362Z,99551.00
2022-10-19T00:41:48.050Z,99556.44
2022-10-19T00:44:16.419Z,99556.48
2022-10-19T00:46:50.664Z,99551.34
2022-10-19T00:49:30.295Z,99547.95
2022-10-19T00:52:04.031Z,99552.39
2022-10-19T00:54:36.102Z,99549.96
2022-10-19T00:57:05.271Z,99546.48
2022-10-19T00:59:34.835Z,99544.98
2022-10-19T01:02:05.429Z,99542.17
2022-10-19T01:04:37.207Z,99541.27
2022-10-19T01:07:08.377Z,99541.11
2022-10-19T01:09:36.174Z,99540.27
2022-10-19T01:12:23.662Z,99543.29
2022-10-19T01:15:17.505Z,99543.05
2022-10-19T01:18:03.802Z,99539.05
2022-10-19T01:20:50.551Z,99534.79
2022-10-19T01:23:40.319Z,99528.46
2022-10-19T01:26:23.034Z,99527.83
2022-10-19T01:29:15.764Z,99524.08
2022-10-19T01:31:57.687Z,99518.95
2022-10-19T01:34:38.403Z,99516.50
2022-10-19T01:37:36.708Z,99516.10
2022-10-19T01:40:31.290Z,99509.91
2022-10-19T01:43:11.869Z,99511.99
2022-10-19T01:46:04.078Z,99516.02
2022-10-19T01:48:36.186Z,99522.17
2022-10-19T01:51:09.720Z,99516.65
2022-10-19T01:53:44.511Z,99508.54
2022-10-19T01:56:13.678Z,99497.08
2022-10-19T01:58:47.158Z,99504.98
2022-10-19T02:01:19.889Z,99511.48
2022-10-19T02:03:49.062Z,99516.69
2022-10-19T02:06:18.463Z,99510.40
2022-10-19T02:08:52.573Z,99508.58
2022-10-19T02:11:23.447Z,99508.68
2022-10-19T02:13:59.885Z,99506.34
2022-10-19T02:16:35.330Z,99501.63
2022-10-19T02:19:05.653Z,99509.63
2022-10-19T02:21:33.314Z,99511.60
2022-10-19T02:24:01.012Z,99512.98
2022-10-19T02:26:29.705Z,99508.39
2022-10-19T02:28:58.813Z,99504.08
2022-10-19T02:31:27.282Z,99507.47
2022-10-19T02:33:55.166Z,99505.13
2022-10-19T02:36:23.034Z,99502.15
2022-10-19T02:38:52.328Z,99500.53
2022-10-19T02:41:42.831Z,99490.95
2022-10-19T02:44:21.553Z,99482.54
2022-10-19T02:47:03.788Z,99479.79
2022-10-19T02:49:35.461Z,99471.87
2022-10-19T02:52:09.451Z,99479.96
2022-10-19T02:54:39.580Z,99486.58
2022-10-19T02:57:20.856Z,99485.18
2022-10-19T02:59:49.429Z,99491.20
2022-10-19T03:02:19.641Z,99493.45
2022-10-19T03:07:21.752Z,99496.13
2022-10-19T03:09:49.803Z,99495.13
2022-10-19T03:12:18.627Z,99498.91
2022-10-19T03:14:46.449Z,99500.64
2022-10-19T03:17:16.585Z,99498.05
2022-10-19T03:19:44.907Z,99496.73
2022-10-19T03:22:15.034Z,99498.20
2022-10-19T03:24:42.888Z,99497.33
2022-10-19T03:27:10.582Z,99496.08
2022-10-19T03:29:38.326Z,99492.08
2022-10-19T03:32:07.092Z,99492.83
2022-10-19T03:34:34.731Z,99492.59
2022-10-19T03:37:03.031Z,99488.35
2022-10-19T03:39:32.702Z,99480.33
2022-10-19T03:42:01.310Z,99481.89
2022-10-19T03:44:29.124Z,99476.85
2022-10-19T03:46:58.645Z,99473.69
2022-10-19T03:49:26.403Z,99467.30
2022-10-19T03:51:54.215Z,99463.20
2022-10-19T03:54:24.978Z,99461.58
2022-10-19T03:56:55.523Z,99461.45
2022-10-19T03:59:24.788Z,99457.37
2022-10-19T04:01:54.592Z,99456.75
2022-10-19T04:04:22.321Z,99459.98
2022-10-19T04:06:54.306Z,99462.94
2022-10-19T04:09:23.504Z,99465.45
2022-10-19T04:11:51.292Z,99468.23
2022-10-19T04:14:32.721Z,99466.02
2022-10-19T04:17:07.305Z,99468.05
2022-10-19T04:19:34.975Z,99462.61
2022-10-19T04:22:03.973Z,99459.27
2022-10-19T04:24:33.150Z,99457.38
2022-10-19T04:27:01.954Z,99456.67
2022-10-19T04:29:30.060Z,99454.06
2022-10-19T04:32:00.002Z,99455.47
2022-10-19T04:34:28.392Z,99451.91
2022-10-19T04:36:59.724Z,99452.91
2022-10-19T04:39:28.056Z,99452.81
2022-10-19T04:41:55.942Z,99456.33
2022-10-19T04:46:57.981Z,99451.10
2022-10-19T04:49:25.638Z,99449.37
2022-10-19T04:51:54.157Z,99448.70
2022-10-19T04:54:22.163Z,99448.98
2022-10-19T04:56:50.661Z,99446.36
2022-10-19T04:59:18.379Z,99444.17
2022-10-19T05:01:47.211Z,99439.69
2022-10-19T05:04:15.914Z,99434.77
2022-10-19T05:06:45.507Z,99437.02
2022-10-19T05:09:14.247Z,99439.65
2022-10-19T05:11:42.076Z,99441.20
2022-10-19T05:14:09.851Z,99440.98
2022-10-19T05:16:40.049Z,99441.83
2022-10-19T05:19:07.943Z,99440.98
2022-10-19T05:21:35.615Z,99444.05
2022-10-19T05:24:04.763Z,99445.52
2022-10-19T05:26:32.588Z,99443.70
2022-10-19T05:29:02.726Z,99447.45
2022-10-19T05:31:35.437Z,99448.06
2022-10-19T05:34:04.700Z,99447.63
2022-10-19T05:36:37.881Z,99443.28
2022-10-19T05:39:17.694Z,99445.48
2022-10-19T05:41:47.672Z,99443.70
2022-10-19T05:44:20.304Z,99435.70
2022-10-19T05:46:51.762Z,99438.30
2022-10-19T05:49:21.418Z,99438.79
2022-10-19T05:51:51.029Z,99440.16
2022-10-19T05:54:21.806Z,99436.23
2022-10-19T05:56:51.987Z,99439.88
2022-10-19T05:59:24.194Z,99443.67
2022-10-19T06:01:51.921Z,99448.80
2022-10-19T06:04:19.674Z,99452.55
2022-10-19T06:06:47.521Z,99456.66
2022-10-19T06:09:15.238Z,99452.13
2022-10-19T06:11:43.069Z,99455.86
2022-10-19T06:14:16.085Z,99457.26
2022-10-19T06:16:48.528Z,99460.27
2022-10-19T06:19:17.494Z,99459.80
2022-10-19T06:21:46.467Z,99458.77
2022-10-19T06:24:15.270Z,99455.50
2022-10-19T06:26:42.976Z,99453.73
2022-10-19T06:29:12.157Z,99458.01
2022-10-19T06:31:40.000Z,99466.08
2022-10-19T06:34:07.888Z,99465.17
2022-10-19T06:36:35.681Z,99466.17
2022-10-19T06:39:04.733Z,99467.20
2022-10-19T06:41:34.366Z,99465.85
2022-10-19T06:44:02.117Z,99471.02
2022-10-19T06:46:29.975Z,99470.06
2022-10-19T06:49:01.626Z,99470.71
2022-10-19T06:51:34.250Z,99471.19
2022-10-19T06:54:04.173Z,99472.93
2022-10-19T06:56:33.084Z,99463.83
2022-10-19T06:59:02.867Z,99465.70
2022-10-19T07:01:31.591Z,99465.66
2022-10-19T07:03:59.297Z,99470.91
2022-10-19T07:06:29.240Z,99475.78
2022-10-19T07:08:56.979Z,99480.60
2022-10-19T07:11:27.178Z,99471.84
2022-10-19T07:13:56.165Z,99473.00
2022-10-19T07:16:26.092Z,99477.23
2022-10-19T07:18:53.832Z,99477.65
2022-10-19T07:21:23.430Z,99475.85
2022-10-19T07:23:51.935Z,99480.88
2022-10-19T07:26:28.536Z,99483.55
2022-10-19T07:28:57.920Z,99481.48
2022-10-19T07:31:29.142Z,99476.31
2022-10-19T07:34:01.244Z,99481.77
2022-10-19T07:36:33.278Z,99486.45
2022-10-19T07:39:08.244Z,99486.02
2022-10-19T07:41:35.985Z,99489.59
2022-10-19T07:44:05.297Z,99480.16
2022-10-19T07:46:38.060Z,99481.58
2022-10-19T07:49:10.602Z,99476.14
2022-10-19T07:51:40.346Z,99477.61
2022-10-19T07:54:09.181Z,99476.76
2022-10-19T07:56:37.186Z,99474.86
2022-10-19T07:59:08.357Z,99471.58
2022-10-19T08:01:45.705Z,99472.81
2022-10-19T08:04:55.571Z,99471.21
2022-10-19T08:07:01.161Z,99471.17
2022-10-19T08:12:17.534Z,99473.52
2022-10-19T08:14:48.880Z,99470.64
2022-10-19T08:17:18.625Z,99463.77
2022-10-19T08:19:47.159Z,99464.23
2022-10-19T08:22:16.094Z,99459.38
2022-10-19T08:24:43.887Z,99460.54
2022-10-19T08:27:11.623Z,99460.22
2022-10-19T08:29:41.426Z,99458.86
2022-10-19T08:32:09.186Z,99461.73
2022-10-19T08:34:38.024Z,99463.08
2022-10-19T08:37:14.718Z,99465.21
2022-10-19T08:39:55.830Z,99467.30
2022-10-19T08:42:34.719Z,99467.89
2022-10-19T08:45:36.901Z,99463.88
2022-10-19T08:48:21.313Z,99462.10
2022-10-19T08:50:53.112Z,99461.64
2022-10-19T08:53:41.300Z,99461.59
2022-10-19T08:56:45.927Z,99456.18
2022-10-19T08:59:34.921Z,99455.60
2022-10-19T09:02:20.463Z,99451.98
2022-10-19T09:04:56.984Z,99454.30
2022-10-19T09:07:28.493Z,99451.09
2022-10-19T09:10:15.867Z,99444.35
2022-10-19T09:13:16.194Z,99445.05
2022-10-19T09:15:51.481Z,99451.73
2022-10-19T09:18:28.723Z,99457.54
2022-10-19T09:21:33.416Z,99459.24
2022-10-19T09:24:48.506Z,99467.48
2022-10-19T09:27:23.466Z,99470.25
2022-10-19T09:30:04.557Z,99466.45
2022-10-19T09:32:38.776Z,99469.64
2022-10-19T09:35:18.817Z,99474.79
2022-10-19T09:37:51.996Z,99473.88
2022-10-19T09:40:25.141Z,99474.70
2022-10-19T09:42:58.444Z,99469.04
2022-10-19T09:45:51.877Z,99473.27
2022-10-19T09:48:36.867Z,99471.45
2022-10-19T09:51:14.170Z,99470.93
2022-10-19T09:53:50.221Z,99473.12
2022-10-19T09:56:26.513Z,99471.48
2022-10-19T09:58:58.177Z,99471.41
2022-10-19T10:01:43.984Z,99474.64
2022-10-19T10:04:19.160Z,99472.93
2022-10-19T10:06:49.394Z,99467.46
2022-10-19T10:09:23.038Z,99467.14
2022-10-19T10:14:36.227Z,99466.46
2022-10-19T10:17:08.580Z,99464.74
2022-10-19T10:19:38.257Z,99457.35
2022-10-19T10:22:26.055Z,99457.98
2022-10-19T10:24:56.820Z,99458.47
2022-10-19T10:27:38.994Z,99452.48
2022-10-19T10:30:20.726Z,99449.23
2022-10-19T10:32:53.239Z,99448.94
2022-10-19T10:35:36.184Z,99457.63
2022-10-19T10:38:15.377Z,99452.64
2022-10-19T10:40:52.102Z,99448.05
2022-10-19T10:43:28.867Z,99445.29
2022-10-19T10:46:15.077Z,99448.31
2022-10-19T10:48:53.498Z,99449.16
2022-10-19T10:51:26.507Z,99451.05
2022-10-19T10:54:21.904Z,99440.70
2022-10-19T10:57:14.119Z,99441.91
2022-10-19T11:00:09.019Z,99434.30
2022-10-19T11:03:08.900Z,99431.55
2022-10-19T11:05:46.075Z,99436.94
2022-10-19T11:08:38.649Z,99437.33
2022-10-19T11:11:22.499Z,99437.49
2022-10-19T11:14:28.557Z,99434.08
2022-10-19T11:17:07.959Z,99437.90
2022-10-19T11:19:45.749Z,99434.73
2022-10-19T11:22:26.400Z,99433.39
2022-10-19T11:25:16.036Z,99427.05
2022-10-19T11:27:46.449Z,99426.85
2022-10-19T11:30:20.044Z,99423.05
2022-10-19T11:33:06.802Z,99423.83
2022-10-19T11:35:54.140Z,99416.77
2022-10-19T11:38:42.562Z,99410.88
2022-10-19T11:41:51.892Z,99415.45
2022-10-19T11:44:38.410Z,99410.02
2022-10-19T11:47:21.533Z,99411.13
2022-10-19T11:53:19.005Z,99407.64
2022-10-19T11:56:20.192Z,99407.05
2022-10-19T11:59:14.628Z,99409.33
2022-10-19T12:02:13.462Z,99408.86
2022-10-19T12:05:05.967Z,99402.58
2022-10-19T12:08:00.124Z,99397.40
2022-10-19T12:10:42.130Z,99402.51
2022-10-19T12:13:16.199Z,99399.02
2022-10-19T12:15:54.626Z,99397.36
2022-10-19T12:18:41.278Z,99394.37
2022-10-19T12:21:32.114Z,99393.67
2022-10-19T12:24:05.636Z,99389.66
2022-10-19T12:26:36.609Z,99389.30
2022-10-19T12:29:35.030Z,99388.16
2022-10-19T12:32:05.696Z,99386.19
2022-10-19T12:35:01.349Z,99385.36
2022-10-19T12:37:43.129Z,99387.45
2022-10-19T12:40:26.477Z,99388.67
2022-10-19T12:43:14.743Z,99390.02
2022-10-19T12:46:12.582Z,99388.16
2022-10-19T12:48:40.355Z,99387.86
2022-10-19T12:51:17.109Z,99393.88
2022-10-19T12:53:49.172Z,99385.40
2022-10-19T12:56:25.898Z,99389.33
2022-10-19T12:59:01.775Z,99386.55
2022-10-19T13:01:45.149Z,99381.77
2022-10-19T13:04:18.714Z,99383.41
2022-10-19T13:07:02.755Z,99378.72
2022-10-19T13:09:44.050Z,99378.63
2022-10-19T13:12:17.871Z,99383.17
2022-10-19T13:15:03.847Z,99380.38
2022-10-19T13:17:34.676Z,99385.51
2022-10-19T13:20:13.322Z,99384.67
2022-10-19T13:22:46.557Z,99385.45
2022-10-19T13:25:23.786Z,99384.63
2022-10-19T13:28:15.963Z,99382.11
2022-10-19T13:30:48.427Z,99387.27
2022-10-19T13:33:29.613Z,99382.69
2022-10-19T13:36:03.087Z,99382.17
2022-10-19T13:38:33.745Z,99380.09
2022-10-19T13:41:45.095Z,99378.30
2022-10-19T13:44:14.715Z,99377.85
2022-10-19T13:47:13.343Z,99377.38
2022-10-19T13:49:59.254Z,99379.34
2022-10-19T13:52:45.143Z,99381.96
2022-10-19T13:55:32.467Z,99378.35
2022-10-19T13:58:05.993Z,99376.34
2022-10-19T14:00:51.030Z,99375.81
2022-10-19T14:03:40.553Z,99376.27
2022-10-19T14:06:27.641Z,99379.70
2022-10-19T14:09:23.885Z,99381.19
2022-10-19T14:11:55.320Z,99373.52
2022-10-19T14:14:25.197Z,99375.94
2022-10-19T14:17:03.060Z,99373.45
2022-10-19T14:19:43.391Z,99372.16
2022-10-19T14:22:37.586Z,99372.42
2022-10-19T14:25:11.088Z,99371.98
2022-10-19T14:27:41.189Z,99375.41
2022-10-19T14:30:27.698Z,99375.58
2022-10-19T14:33:02.176Z,99375.34
2022-10-19T14:35:36.406Z,99383.38
2022-10-19T14:38:18.973Z,99381.77
2022-10-19T14:40:47.886Z,99377.63
2022-10-19T14:43:18.757Z,99383.38
2022-10-19T14:46:04.655Z,99390.49
2022-10-19T14:48:41.246Z,99393.67
2022-10-19T14:51:21.979Z,99395.41
2022-10-19T14:54:13.684Z,99394.36
2022-10-19T14:57:18.550Z,99395.38
2022-10-19T15:00:01.289Z,99397.33
2022-10-19T15:02:44.429Z,99397.31
2022-10-19T15:05:21.079Z,99401.07
2022-10-19T15:07:50.622Z,99404.50
2022-10-19T15:10:24.069Z,99407.20
2022-10-19T15:12:58.210Z,99406.51
2022-10-19T15:15:34.781Z,99402.02
2022-10-19T15:18:05.566Z,99401.10
2022-10-19T15:20:49.521Z,99402.82
2022-10-19T15:23:44.847Z,99407.30
2022-10-19T15:26:24.410Z,99407.13
2022-10-19T15:28:53.577Z,99411.12
2022-10-19T15:31:27.989Z,99411.52
2022-10-19T15:34:02.490Z,99407.70
2022-10-19T15:36:32.852Z,99401.92
2022-10-19T15:39:18.270Z,99406.41
2022-10-19T15:41:54.407Z,99406.70
2022-10-19T15:44:43.696Z,99410.38
2022-10-19T15:47:21.860Z,99411.45
2022-10-19T15:49:52.597Z,99421.59
2022-10-19T15:52:26.952Z,99422.06
2022-10-19T15:55:00.654Z,99426.62
2022-10-19T15:57:38.947Z,99435.10
2022-10-19T16:00:21.797Z,99437.38
2022-10-19T16:02:49.580Z,99468.00
2022-10-19T16:05:17.405Z,99474.50
2022-10-19T16:07:45.131Z,99475.48
2022-10-19T16:10:23.159Z,99474.71
2022-10-19T16:12:53.111Z,99481.14
2022-10-19T16:15:24.277Z,99479.84
2022-10-19T16:17:59.215Z,99478.27
2022-10-19T16:20:31.581Z,99479.63
2022-10-19T16:22:59.330Z,99479.73
2022-10-19T16:25:27.187Z,99490.20
2022-10-19T16:27:54.965Z,99486.70
2022-10-19T16:30:26.058Z,99486.27
2022-10-19T16:32:55.989Z,99489.17
2022-10-19T16:35:26.260Z,99495.16
2022-10-19T16:37:53.934Z,99498.31
2022-10-19T16:40:28.114Z,99492.45
2022-10-19T16:43:00.625Z,99493.59
2022-10-19T16:45:30.976Z,99497.94
2022-10-19T16:47:58.817Z,99495.65
2022-10-19T16:50:29.567Z,99493.90
2022-10-19T16:53:11.515Z,99506.98
2022-10-19T16:55:42.071Z,99511.73
2022-10-19T16:58:12.864Z,99513.39
2022-10-19T17:00:42.748Z,99514.48
2022-10-19T17:03:10.458Z,99521.71
2022-10-19T17:05:40.303Z,99527.51
2022-10-19T17:08:10.729Z,99535.38
2022-10-19T17:10:38.528Z,99536.90
2022-10-19T17:13:06.263Z,99536.90
2022-10-19T17:15:42.928Z,99536.08
2022-10-19T17:18:13.009Z,99539.95
2022-10-19T17:20:40.655Z,99541.09
2022-10-19T17:23:08.417Z,99543.88
2022-10-19T17:25:37.486Z,99549.77
2022-10-19T17:28:05.151Z,99555.11
2022-10-19T17:30:32.825Z,99556.90
2022-10-19T17:33:00.585Z,99561.56
2022-10-19T17:35:28.343Z,99563.05
2022-10-19T17:37:56.304Z,99569.14
2022-10-19T17:40:24.020Z,99571.50
2022-10-19T17:42:52.648Z,99577.80
2022-10-19T17:45:21.180Z,99583.23
2022-10-19T17:47:49.078Z,99582.02
2022-10-19T17:50:16.849Z,99584.45
2022-10-19T17:52:44.729Z,99589.61
2022-10-19T17:55:13.292Z,99596.36
2022-10-19T17:57:43.627Z,99599.92
2022-10-19T18:00:11.765Z,99605.10
2022-10-19T18:02:44.205Z,99606.86
2022-10-19T18:05:11.979Z,99607.48
2022-10-19T18:07:39.689Z,99611.13
2022-10-19T18:10:07.730Z,99613.63
2022-10-19T18:12:35.561Z,99615.73
2022-10-19T18:15:04.380Z,99610.16
2022-10-19T18:17:32.175Z,99614.06
2022-10-19T18:19:59.948Z,99614.68
2022-10-19T18:22:27.814Z,99617.33
2022-10-19T18:24:55.755Z,99618.78
2022-10-19T18:27:23.586Z,99626.18
2022-10-19T18:29:51.470Z,99625.27
2022-10-19T18:32:19.188Z,99630.29
2022-10-19T18:34:46.881Z,99631.60
2022-10-19T18:37:16.870Z,99628.15
2022-10-19T18:39:44.848Z,99630.40
2022-10-19T18:42:13.088Z,99637.74
2022-10-19T18:44:41.040Z,99639.55
2022-10-19T18:47:11.151Z,99640.02
2022-10-19T18:49:38.873Z,99640.56
2022-10-19T18:52:09.644Z,99643.88
2022-10-19T18:54:37.389Z,99647.48
2022-10-19T18:57:05.046Z,99651.52
2022-10-19T18:59:32.918Z,99655.52
2022-10-19T19:02:03.771Z,99663.32
2022-10-19T19:04:35.432Z,99663.80
2022-10-19T19:07:06.349Z,99670.64
2022-10-19T19:09:34.809Z,99673.19
2022-10-19T19:12:02.834Z,99671.88
2022-10-19T19:14:36.775Z,99674.98
2022-10-19T19:17:04.728Z,99680.89
2022-10-19T19:19:36.248Z,99680.02
2022-10-19T19:22:08.791Z,99687.83
2022-10-19T19:24:38.655Z,99695.17
2022-10-19T19:27:07.365Z,99697.10
2022-10-19T19:29:38.458Z,99699.89
2022-10-19T19:32:06.335Z,99705.92
2022-10-19T19:34:36.831Z,99712.35
2022-10-19T19:37:08.771Z,99708.30
2022-10-19T19:39:42.388Z,99713.44
2022-10-19T19:42:10.517Z,99719.35
2022-10-19T19:44:38.297Z,99716.94
2022-10-19T19:47:07.587Z,99726.05
2022-10-19T19:49:36.501Z,99726.81
2022-10-19T19:52:07.401Z,99724.40
2022-10-19T19:54:37.866Z,99726.23
2022-10-19T19:57:08.626Z,99732.93
2022-10-19T19:59:36.303Z,99740.10
2022-10-19T20:02:07.132Z,99741.98
2022-10-19T20:04:35.191Z,99740.20
2022-10-19T20:07:03.352Z,99748.42
2022-10-19T20:09:31.366Z,99752.84
2022-10-19T20:12:00.166Z,99753.33
2022-10-19T20:14:30.217Z,99753.44
2022-10-19T20:16:58.152Z,99751.79
2022-10-19T20:19:25.986Z,99753.06
2022-10-19T20:21:56.968Z,99758.73
2022-10-19T20:24:24.677Z,99759.17
2022-10-19T20:26:53.097Z,99759.84
2022-10-19T20:29:24.670Z,99758.11
2022-10-19T20:31:52.475Z,99763.45
2022-10-19T20:34:21.939Z,99773.55
2022-10-19T20:36:54.471Z,99772.90
2022-10-19T20:39:24.864Z,99770.84
2022-10-19T20:41:53.276Z,99774.75
2022-10-19T20:44:21.007Z,99772.19
2022-10-19T20:46:51.655Z,99773.73
2022-10-19T20:49:20.173Z,99771.71
2022-10-19T20:51:48.061Z,99767.64
2022-10-19T20:54:17.019Z,99768.52
2022-10-19T20:56:44.678Z,99771.51
2022-10-19T20:59:17.559Z,99773.09
2022-10-19T21:01:52.136Z,99778.98
2022-10-19T21:04:19.967Z,99780.38
2022-10-19T21:06:51.916Z,99785.33
2022-10-19T21:09:24.092Z,99787.42
2022-10-19T21:11:55.958Z,99787.98
2022-10-19T21:14:28.987Z,99791.02
2022-10-19T21:17:00.591Z,99791.52
2022-10-19T21:19:31.185Z,99793.89
2022-10-19T21:22:02.993Z,99794.98
2022-10-19T21:24:35.530Z,99800.93
2022-10-19T21:27:09.045Z,99800.24
2022-10-19T21:29:37.411Z,99803.45
2022-10-19T21:32:05.532Z,99803.44
2022-10-19T21:34:33.976Z,99797.15
2022-10-19T21:37:01.823Z,99796.85
2022-10-19T21:39:29.628Z,99798.16
2022-10-19T21:41:59.741Z,99803.58
2022-10-19T21:44:30.054Z,99804.09
2022-10-19T21:46:57.678Z,99809.19
2022-10-19T21:49:25.377Z,99810.04
2022-10-19T21:51:55.992Z,99813.70
2022-10-19T21:54:26.756Z,99812.82
2022-10-19T21:57:00.259Z,99815.49
2022-10-19T21:59:27.956Z,99812.89
2022-10-19T22:01:56.924Z,99813.69
2022-10-19T22:04:24.706Z,99813.86
2022-10-19T22:06:56.019Z,99814.02
2022-10-19T22:09:25.870Z,99818.05
2022-10-19T22:11:53.641Z,99816.72
2022-10-19T22:14:21.352Z,99820.63
2022-10-19T22:16:49.164Z,99821.35
2022-10-19T22:19:19.856Z,99820.98
2022-10-19T22:21:50.556Z,99820.95
2022-10-19T22:24:18.625Z,99817.16
2022-10-19T22:26:50.878Z,99818.09
2022-10-19T22:29:21.967Z,99821.25
2022-10-19T22:31:52.703Z,99827.02
2022-10-19T22:34:20.474Z,99830.38
2022-10-19T22:36:49.065Z,99828.91
2022-10-19T22:39:17.024Z,99829.21
2022-10-19T22:42:41.453Z,99829.27
2022-10-19T22:45:12.206Z,99824.02
2022-10-19T22:47:43.107Z,99825.19
2022-10-19T22:50:14.554Z,99826.18
2022-10-19T22:52:42.452Z,99826.45
2022-10-19T22:55:13.627Z,99829.54
2022-10-19T22:57:41.484Z,99828.20
2022-10-19T23:00:11.820Z,99830.02
2022-10-19T23:02:39.671Z,99830.45
2022-10-19T23:05:13.095Z,99834.96
2022-10-19T23:07:40.923Z,99833.66
2022-10-19T23:10:14.465Z,99838.55
2022-10-19T23:12:42.312Z,99845.84
2022-10-19T23:15:10.610Z,99847.57
2022-10-19T23:17:41.630Z,99843.11
2022-10-19T23:20:10.238Z,99841.95
2022-10-19T23:22:38.092Z,99843.92
2022-10-19T23:25:09.077Z,99839.42
2022-10-19T23:27:37.407Z,99840.34
2022-10-19T23:30:08.509Z,99844.42
2022-10-19T23:32:36.509Z,99848.72
2022-10-19T23:35:07.431Z,99848.99
2022-10-19T23:37:38.408Z,99851.36
2022-10-19T23:40:09.487Z,99853.08
2022-10-19T23:42:37.216Z,99856.67
2022-10-19T23:45:05.280Z,99858.67
2022-10-19T23:47:33.121Z,99855.55
2022-10-19T23:50:03.804Z,99858.23
2022-10-19T23:52:34.429Z,99853.36
2022-10-19T23:55:02.136Z,99860.33
2022-10-19T23:57:33.006Z,99860.41
